sensor_id;sensor_type;location;lat;lon;timestamp;pressure;altitude;pressure_sealevel;temperature;humidity
62402;BME280;48440;51.224;22.506;2024-01-11T00:01:32;100006.09;;;-6.38;51.61
62402;BME280;48440;51.224;22.506;2024-01-11T00:03:59;99999.97;;;-6.39;52.10
62402;BME280;48440;51.224;22.506;2024-01-11T00:06:24;99993.72;;;-6.38;52.13
62402;BME280;48440;51.224;22.506;2024-01-11T00:08:50;99985.22;;;-6.41;51.93
62402;BME280;48440;51.224;22.506;2024-01-11T00:11:16;99972.84;;;-6.41;51.94
62402;BME280;48440;51.224;22.506;2024-01-11T00:13:42;99972.97;;;-6.42;52.63
62402;BME280;48440;51.224;22.506;2024-01-11T00:16:08;99969.25;;;-6.40;52.22
62402;BME280;48440;51.224;22.506;2024-01-11T00:18:33;99970.47;;;-6.44;52.36
62402;BME280;48440;51.224;22.506;2024-01-11T00:20:59;99961.69;;;-6.44;52.49
62402;BME280;48440;51.224;22.506;2024-01-11T00:23:24;99965.06;;;-6.42;52.34
62402;BME280;48440;51.224;22.506;2024-01-11T00:25:50;99953.66;;;-6.43;52.62
62402;BME280;48440;51.224;22.506;2024-01-11T02:21:28;99834.66;;;-5.92;57.31
62402;BME280;48440;51.224;22.506;2024-01-11T02:46:24;99837.72;;;-5.77;58.85
62402;BME280;48440;51.224;22.506;2024-01-11T03:02:41;99772.28;;;-5.65;59.75
62402;BME280;48440;51.224;22.506;2024-01-11T03:31:57;99719.69;;;-5.49;61.51
62402;BME280;48440;51.224;22.506;2024-01-11T03:35:20;99713.84;;;-5.53;60.86
62402;BME280;48440;51.224;22.506;2024-01-11T03:44:12;99707.97;;;-5.56;60.63
62402;BME280;48440;51.224;22.506;2024-01-11T03:46:52;99716.91;;;-5.57;60.86
62402;BME280;48440;51.224;22.506;2024-01-11T03:49:30;99718.44;;;-5.55;60.81
62402;BME280;48440;51.224;22.506;2024-01-11T03:52:33;99705.91;;;-5.53;60.58
62402;BME280;48440;51.224;22.506;2024-01-11T04:03:09;99699.34;;;-5.49;61.04
62402;BME280;48440;51.224;22.506;2024-01-11T04:13:20;99676.38;;;-5.48;60.29
62402;BME280;48440;51.224;22.506;2024-01-11T04:45:45;99658.75;;;-5.76;61.48
62402;BME280;48440;51.224;22.506;2024-01-11T05:03:20;99677.00;;;-5.73;61.95
62402;BME280;48440;51.224;22.506;2024-01-11T05:36:13;99655.69;;;-5.72;62.64
62402;BME280;48440;51.224;22.506;2024-01-11T05:49:38;99650.66;;;-5.65;63.64
62402;BME280;48440;51.224;22.506;2024-01-11T05:52:07;99658.31;;;-5.62;63.66
62402;BME280;48440;51.224;22.506;2024-01-11T05:54:36;99664.28;;;-5.60;63.60
62402;BME280;48440;51.224;22.506;2024-01-11T05:57:25;99661.50;;;-5.59;63.86
62402;BME280;48440;51.224;22.506;2024-01-11T06:00:00;99657.72;;;-5.56;63.99
62402;BME280;48440;51.224;22.506;2024-01-11T06:11:33;99640.19;;;-5.48;64.60
62402;BME280;48440;51.224;22.506;2024-01-11T06:13:59;99623.34;;;-5.47;64.87
62402;BME280;48440;51.224;22.506;2024-01-11T06:16:34;99627.63;;;-5.46;64.98
62402;BME280;48440;51.224;22.506;2024-01-11T06:19:05;99621.19;;;-5.43;64.92
62402;BME280;48440;51.224;22.506;2024-01-11T06:21:32;99628.16;;;-5.42;65.32
62402;BME280;48440;51.224;22.506;2024-01-11T06:23:57;99622.72;;;-5.40;65.48
62402;BME280;48440;51.224;22.506;2024-01-11T06:26:26;99615.47;;;-5.38;65.50
62402;BME280;48440;51.224;22.506;2024-01-11T06:28:52;99611.84;;;-5.37;65.45
62402;BME280;48440;51.224;22.506;2024-01-11T06:31:20;99600.44;;;-5.38;65.51
62402;BME280;48440;51.224;22.506;2024-01-11T06:33:45;99597.66;;;-5.36;65.60
62402;BME280;48440;51.224;22.506;2024-01-11T06:36:13;99582.75;;;-5.37;65.42
62402;BME280;48440;51.224;22.506;2024-01-11T06:38:39;99572.03;;;-5.36;65.31
62402;BME280;48440;51.224;22.506;2024-01-11T06:41:04;99582.47;;;-5.34;65.63
62402;BME280;48440;51.224;22.506;2024-01-11T06:43:30;99585.25;;;-5.36;65.67
62402;BME280;48440;51.224;22.506;2024-01-11T06:45:55;99588.88;;;-5.37;66.16
62402;BME280;48440;51.224;22.506;2024-01-11T06:48:21;99574.53;;;-5.34;66.17
62402;BME280;48440;51.224;22.506;2024-01-11T06:50:46;99589.28;;;-5.32;66.33
62402;BME280;48440;51.224;22.506;2024-01-11T06:53:12;99589.13;;;-5.30;66.39
62402;BME280;48440;51.224;22.506;2024-01-11T06:55:37;99579.38;;;-5.30;66.68
62402;BME280;48440;51.224;22.506;2024-01-11T06:58:03;99582.72;;;-5.28;66.80
62402;BME280;48440;51.224;22.506;2024-01-11T07:00:28;99577.97;;;-5.24;66.77
62402;BME280;48440;51.224;22.506;2024-01-11T07:02:54;99580.47;;;-5.23;67.19
62402;BME280;48440;51.224;22.506;2024-01-11T07:05:20;99574.34;;;-5.23;67.63
62402;BME280;48440;51.224;22.506;2024-01-11T07:07:46;99582.50;;;-5.17;67.18
62402;BME280;48440;51.224;22.506;2024-01-11T07:10:11;99570.66;;;-5.13;67.49
62402;BME280;48440;51.224;22.506;2024-01-11T07:12:37;99574.69;;;-5.08;67.38
62402;BME280;48440;51.224;22.506;2024-01-11T07:15:04;99570.91;;;-5.06;67.59
62402;BME280;48440;51.224;22.506;2024-01-11T07:17:30;99567.97;;;-5.03;67.41
62402;BME280;48440;51.224;22.506;2024-01-11T07:19:55;99564.34;;;-5.02;67.19
62402;BME280;48440;51.224;22.506;2024-01-11T07:22:21;99560.25;;;-4.96;67.27
62402;BME280;48440;51.224;22.506;2024-01-11T07:24:47;99563.88;;;-4.97;67.45
62402;BME280;48440;51.224;22.506;2024-01-11T07:27:12;99562.75;;;-4.95;67.48
62402;BME280;48440;51.224;22.506;2024-01-11T07:29:38;99558.31;;;-4.94;67.46
62402;BME280;48440;51.224;22.506;2024-01-11T07:32:03;99554.00;;;-4.95;67.83
62402;BME280;48440;51.224;22.506;2024-01-11T07:34:29;99554.81;;;-4.95;68.10
62402;BME280;48440;51.224;22.506;2024-01-11T07:36:54;99546.69;;;-4.93;68.32
62402;BME280;48440;51.224;22.506;2024-01-11T07:39:20;99541.41;;;-4.93;68.84
62402;BME280;48440;51.224;22.506;2024-01-11T07:41:48;99547.22;;;-4.90;68.39
62402;BME280;48440;51.224;22.506;2024-01-11T07:44:13;99545.13;;;-4.86;68.39
62402;BME280;48440;51.224;22.506;2024-01-11T07:46:38;99545.13;;;-4.86;68.24
62402;BME280;48440;51.224;22.506;2024-01-11T07:49:04;99548.47;;;-4.84;68.64
62402;BME280;48440;51.224;22.506;2024-01-11T07:51:30;99553.75;;;-4.84;68.63
62402;BME280;48440;51.224;22.506;2024-01-11T07:53:55;99551.78;;;-4.82;68.63
62402;BME280;48440;51.224;22.506;2024-01-11T07:56:21;99535.91;;;-4.82;68.60
62402;BME280;48440;51.224;22.506;2024-01-11T07:58:47;99548.16;;;-4.81;68.47
62402;BME280;48440;51.224;22.506;2024-01-11T08:01:13;99551.78;;;-4.82;69.06
62402;BME280;48440;51.224;22.506;2024-01-11T08:03:41;99555.13;;;-4.80;68.99
62402;BME280;48440;51.224;22.506;2024-01-11T08:06:07;99541.88;;;-4.80;68.87
62402;BME280;48440;51.224;22.506;2024-01-11T08:08:33;99544.69;;;-4.82;69.36
62402;BME280;48440;51.224;22.506;2024-01-11T08:10:59;99546.34;;;-4.81;69.47
62402;BME280;48440;51.224;22.506;2024-01-11T08:13:24;99547.84;;;-4.78;70.10
62402;BME280;48440;51.224;22.506;2024-01-11T08:15:50;99541.59;;;-4.77;69.92
62402;BME280;48440;51.224;22.506;2024-01-11T08:18:18;99544.09;;;-4.75;69.56
62402;BME280;48440;51.224;22.506;2024-01-11T08:20:43;99551.34;;;-4.78;70.01
62402;BME280;48440;51.224;22.506;2024-01-11T08:23:09;99556.34;;;-4.74;69.93
62402;BME280;48440;51.224;22.506;2024-01-11T08:25:35;99557.84;;;-4.72;70.21
62402;BME280;48440;51.224;22.506;2024-01-11T08:28:00;99545.44;;;-4.71;70.33
62402;BME280;48440;51.224;22.506;2024-01-11T08:30:28;99554.72;;;-4.67;70.21
62402;BME280;48440;51.224;22.506;2024-01-11T08:32:53;99551.94;;;-4.66;70.09
62402;BME280;48440;51.224;22.506;2024-01-11T08:35:19;99549.81;;;-4.62;70.08
62402;BME280;48440;51.224;22.506;2024-01-11T08:37:44;99548.53;;;-4.58;70.34
62402;BME280;48440;51.224;22.506;2024-01-11T08:40:10;99548.53;;;-4.58;69.97
62402;BME280;48440;51.224;22.506;2024-01-11T08:42:36;99550.03;;;-4.56;70.36
62402;BME280;48440;51.224;22.506;2024-01-11T08:45:01;99551.56;;;-4.53;70.35
62402;BME280;48440;51.224;22.506;2024-01-11T08:47:32;99554.22;;;-4.53;70.47
62402;BME280;48440;51.224;22.506;2024-01-11T08:49:58;99559.34;;;-4.52;70.79
62402;BME280;48440;51.224;22.506;2024-01-11T08:52:23;99561.03;;;-4.51;70.46
62402;BME280;48440;51.224;22.506;2024-01-11T08:54:48;99561.19;;;-4.52;70.79
62402;BME280;48440;51.224;22.506;2024-01-11T08:57:15;99571.47;;;-4.49;71.18
62402;BME280;48440;51.224;22.506;2024-01-11T08:59:40;99579.94;;;-4.46;71.39
62402;BME280;48440;51.224;22.506;2024-01-11T09:02:06;99570.38;;;-4.38;70.42
62402;BME280;48440;51.224;22.506;2024-01-11T09:04:32;99568.41;;;-4.36;70.71
62402;BME280;48440;51.224;22.506;2024-01-11T09:06:58;99567.97;;;-4.32;70.41
62402;BME280;48440;51.224;22.506;2024-01-11T09:09:24;99573.56;;;-4.35;70.64
62402;BME280;48440;51.224;22.506;2024-01-11T09:11:49;99575.91;;;-4.32;71.17
62402;BME280;48440;51.224;22.506;2024-01-11T09:14:15;99564.47;;;-4.32;71.38
62402;BME280;48440;51.224;22.506;2024-01-11T09:16:40;99556.53;;;-4.32;71.38
62402;BME280;48440;51.224;22.506;2024-01-11T09:19:09;99556.84;;;-4.35;71.78
62402;BME280;48440;51.224;22.506;2024-01-11T09:21:38;99553.19;;;-4.34;71.90
62402;BME280;48440;51.224;22.506;2024-01-11T09:24:04;99554.56;;;-4.30;72.06
62402;BME280;48440;51.224;22.506;2024-01-11T09:26:30;99565.69;;;-4.27;72.49
62402;BME280;48440;51.224;22.506;2024-01-11T09:28:56;99558.41;;;-4.25;72.47
62402;BME280;48440;51.224;22.506;2024-01-11T09:31:21;99558.13;;;-4.22;72.35
62402;BME280;48440;51.224;22.506;2024-01-11T09:33:47;99551.97;;;-4.22;72.76
62402;BME280;48440;51.224;22.506;2024-01-11T09:36:15;99552.81;;;-4.22;72.78
62402;BME280;48440;51.224;22.506;2024-01-11T09:38:41;99555.31;;;-4.20;73.00
62402;BME280;48440;51.224;22.506;2024-01-11T09:41:10;99545.53;;;-4.20;72.98
62402;BME280;48440;51.224;22.506;2024-01-11T09:43:37;99547.38;;;-4.20;72.90
62402;BME280;48440;51.224;22.506;2024-01-11T09:46:04;99545.53;;;-4.20;73.30
62402;BME280;48440;51.224;22.506;2024-01-11T09:48:38;99545.41;;;-4.18;73.25
62402;BME280;48440;51.224;22.506;2024-01-11T09:51:09;99547.06;;;-4.17;73.92
62402;BME280;48440;51.224;22.506;2024-01-11T09:53:38;99539.25;;;-4.19;74.13
62402;BME280;48440;51.224;22.506;2024-01-11T09:56:07;99535.47;;;-4.16;73.99
62402;BME280;48440;51.224;22.506;2024-01-11T09:58:34;99533.31;;;-4.13;74.49
62402;BME280;48440;51.224;22.506;2024-01-11T10:01:09;99540.81;;;-4.08;74.76
62402;BME280;48440;51.224;22.506;2024-01-11T10:03:36;99529.06;;;-4.05;74.97
62402;BME280;48440;51.224;22.506;2024-01-11T10:06:02;99523.75;;;-4.05;75.32
62402;BME280;48440;51.224;22.506;2024-01-11T10:08:30;99522.63;;;-4.03;75.46
62402;BME280;48440;51.224;22.506;2024-01-11T10:10:56;99517.16;;;-4.01;75.50
62402;BME280;48440;51.224;22.506;2024-01-11T10:13:30;99519.66;;;-4.00;75.99
62402;BME280;48440;51.224;22.506;2024-01-11T10:16:09;99515.19;;;-3.99;76.54
62402;BME280;48440;51.224;22.506;2024-01-11T10:18:36;99508.22;;;-4.00;76.37
62402;BME280;48440;51.224;22.506;2024-01-11T10:21:02;99501.78;;;-3.98;76.83
62402;BME280;48440;51.224;22.506;2024-01-11T10:23:28;99497.31;;;-3.97;76.79
62402;BME280;48440;51.224;22.506;2024-01-11T10:25:57;99490.88;;;-3.95;77.04
62402;BME280;48440;51.224;22.506;2024-01-11T10:28:24;99485.41;;;-3.93;76.97
62402;BME280;48440;51.224;22.506;2024-01-11T10:30:51;99481.75;;;-3.92;77.20
62402;BME280;48440;51.224;22.506;2024-01-11T10:33:20;99476.13;;;-3.89;76.89
62402;BME280;48440;51.224;22.506;2024-01-11T10:35:47;99466.53;;;-3.90;76.70
62402;BME280;48440;51.224;22.506;2024-01-11T10:38:14;99462.84;;;-3.89;77.07
62402;BME280;48440;51.224;22.506;2024-01-11T10:40:40;99463.69;;;-3.89;77.82
62402;BME280;48440;51.224;22.506;2024-01-11T10:43:08;99465.19;;;-3.86;77.62
62402;BME280;48440;51.224;22.506;2024-01-11T10:45:37;99470.50;;;-3.86;78.09
62402;BME280;48440;51.224;22.506;2024-01-11T10:48:13;99454.94;;;-3.81;77.96
62402;BME280;48440;51.224;22.506;2024-01-11T10:50:45;99454.78;;;-3.80;77.86
62402;BME280;48440;51.224;22.506;2024-01-11T10:55:46;99450.00;;;-3.76;78.20
62402;BME280;48440;51.224;22.506;2024-01-11T10:58:13;99448.84;;;-3.73;77.73
62402;BME280;48440;51.224;22.506;2024-01-11T11:00:41;99445.22;;;-3.72;77.69
62402;BME280;48440;51.224;22.506;2024-01-11T11:03:06;99445.06;;;-3.71;77.51
62402;BME280;48440;51.224;22.506;2024-01-11T11:05:34;99438.09;;;-3.72;77.86
62402;BME280;48440;51.224;22.506;2024-01-11T11:08:03;99441.09;;;-3.67;77.50
62402;BME280;48440;51.224;22.506;2024-01-11T11:10:32;99441.09;;;-3.67;77.45
62402;BME280;48440;51.224;22.506;2024-01-11T11:12:59;99424.34;;;-3.67;76.79
62402;BME280;48440;51.224;22.506;2024-01-11T11:15:27;99422.53;;;-3.67;77.14
62402;BME280;48440;51.224;22.506;2024-01-11T11:17:53;99411.41;;;-3.70;77.02
62402;BME280;48440;51.224;22.506;2024-01-11T11:20:21;99421.03;;;-3.69;76.69
62402;BME280;48440;51.224;22.506;2024-01-11T11:25:30;99414.06;;;-3.62;77.50
62402;BME280;48440;51.224;22.506;2024-01-11T11:27:57;99413.75;;;-3.67;77.10
62402;BME280;48440;51.224;22.506;2024-01-11T11:30:23;99406.63;;;-3.67;77.28
62402;BME280;48440;51.224;22.506;2024-01-11T11:32:48;99405.09;;;-3.69;77.30
62402;BME280;48440;51.224;22.506;2024-01-11T11:35:14;99404.94;;;-3.68;77.69
62402;BME280;48440;51.224;22.506;2024-01-11T11:37:39;99393.19;;;-3.65;77.42
62402;BME280;48440;51.224;22.506;2024-01-11T11:40:06;99403.81;;;-3.65;77.38
62402;BME280;48440;51.224;22.506;2024-01-11T11:42:36;99399.81;;;-3.69;77.47
62402;BME280;48440;51.224;22.506;2024-01-11T11:45:03;99396.47;;;-3.71;77.87
62402;BME280;48440;51.224;22.506;2024-01-11T11:47:35;99393.00;;;-3.72;78.18
62402;BME280;48440;51.224;22.506;2024-01-11T11:50:09;99390.50;;;-3.73;78.21
62402;BME280;48440;51.224;22.506;2024-01-11T11:52:39;99400.31;;;-3.66;78.19
62402;BME280;48440;51.224;22.506;2024-01-11T11:55:06;99394.84;;;-3.56;78.25
62402;BME280;48440;51.224;22.506;2024-01-11T11:57:34;99396.03;;;-3.51;78.31
62402;BME280;48440;51.224;22.506;2024-01-11T11:59:59;99385.41;;;-3.51;78.10
62402;BME280;48440;51.224;22.506;2024-01-11T12:02:26;99388.56;;;-3.55;77.51
62402;BME280;48440;51.224;22.506;2024-01-11T12:04:55;99386.22;;;-3.58;77.46
62402;BME280;48440;51.224;22.506;2024-01-11T12:07:21;99369.31;;;-3.57;77.81
62402;BME280;48440;51.224;22.506;2024-01-11T12:09:48;99365.00;;;-3.58;78.42
62402;BME280;48440;51.224;22.506;2024-01-11T12:12:14;99366.31;;;-3.62;78.35
62402;BME280;48440;51.224;22.506;2024-01-11T12:14:41;99363.84;;;-3.64;78.62
62402;BME280;48440;51.224;22.506;2024-01-11T12:17:06;99363.34;;;-3.67;78.57
62402;BME280;48440;51.224;22.506;2024-01-11T12:19:32;99357.53;;;-3.71;79.05
62402;BME280;48440;51.224;22.506;2024-01-11T12:21:58;99345.25;;;-3.72;79.07
62402;BME280;48440;51.224;22.506;2024-01-11T12:24:24;99346.91;;;-3.71;79.54
62402;BME280;48440;51.224;22.506;2024-01-11T12:26:50;99350.91;;;-3.67;79.57
62402;BME280;48440;51.224;22.506;2024-01-11T12:29:23;99341.59;;;-3.63;79.54
62402;BME280;48440;51.224;22.506;2024-01-11T12:31:50;99340.63;;;-3.62;79.58
62402;BME280;48440;51.224;22.506;2024-01-11T12:34:16;99341.28;;;-3.60;79.79
62402;BME280;48440;51.224;22.506;2024-01-11T12:36:41;99340.63;;;-3.62;80.00
62402;BME280;48440;51.224;22.506;2024-01-11T12:39:08;99344.94;;;-3.61;79.83
62402;BME280;48440;51.224;22.506;2024-01-11T12:41:35;99338.78;;;-3.61;79.54
62402;BME280;48440;51.224;22.506;2024-01-11T12:44:01;99334.97;;;-3.59;79.31
62402;BME280;48440;51.224;22.506;2024-01-11T12:46:26;99342.13;;;-3.59;79.40
62402;BME280;48440;51.224;22.506;2024-01-11T12:48:52;99342.94;;;-3.59;79.65
62402;BME280;48440;51.224;22.506;2024-01-11T12:51:18;99340.13;;;-3.57;79.69
62402;BME280;48440;51.224;22.506;2024-01-11T12:53:47;99337.47;;;-3.57;79.41
62402;BME280;48440;51.224;22.506;2024-01-11T12:56:15;99334.00;;;-3.58;79.61
62402;BME280;48440;51.224;22.506;2024-01-11T12:58:42;99325.88;;;-3.56;79.53
62402;BME280;48440;51.224;22.506;2024-01-11T13:01:08;99330.69;;;-3.52;79.39
62402;BME280;48440;51.224;22.506;2024-01-11T13:03:44;99332.34;;;-3.51;79.72
62402;BME280;48440;51.224;22.506;2024-01-11T13:06:11;99324.56;;;-3.52;79.83
62402;BME280;48440;51.224;22.506;2024-01-11T13:08:37;99328.19;;;-3.53;80.14
62402;BME280;48440;51.224;22.506;2024-01-11T13:11:05;99315.59;;;-3.51;79.88
62402;BME280;48440;51.224;22.506;2024-01-11T13:13:33;99321.06;;;-3.53;80.48
62402;BME280;48440;51.224;22.506;2024-01-11T13:15:59;99323.72;;;-3.53;80.72
62402;BME280;48440;51.224;22.506;2024-01-11T13:18:25;99337.00;;;-3.53;81.12
62402;BME280;48440;51.224;22.506;2024-01-11T13:20:50;99336.16;;;-3.53;81.04
62402;BME280;48440;51.224;22.506;2024-01-11T13:23:20;99328.03;;;-3.52;81.10
62402;BME280;48440;51.224;22.506;2024-01-11T13:25:47;99329.69;;;-3.51;81.26
62402;BME280;48440;51.224;22.506;2024-01-11T13:28:13;99326.22;;;-3.51;81.83
62402;BME280;48440;51.224;22.506;2024-01-11T13:30:40;99322.56;;;-3.50;81.54
62402;BME280;48440;51.224;22.506;2024-01-11T13:33:06;99313.94;;;-3.52;81.76
62402;BME280;48440;51.224;22.506;2024-01-11T13:35:34;99318.25;;;-3.51;82.21
62402;BME280;48440;51.224;22.506;2024-01-11T13:37:59;99319.25;;;-3.52;82.15
62402;BME280;48440;51.224;22.506;2024-01-11T13:40:25;99320.06;;;-3.52;82.24
62402;BME280;48440;51.224;22.506;2024-01-11T13:42:56;99305.97;;;-3.52;82.26
62402;BME280;48440;51.224;22.506;2024-01-11T13:45:22;99301.50;;;-3.52;82.43
62402;BME280;48440;51.224;22.506;2024-01-11T13:47:48;99300.34;;;-3.49;82.05
62402;BME280;48440;51.224;22.506;2024-01-11T13:50:14;99301.34;;;-3.50;82.63
62402;BME280;48440;51.224;22.506;2024-01-11T13:52:40;99303.50;;;-3.46;82.71
62402;BME280;48440;51.224;22.506;2024-01-11T13:55:07;99298.88;;;-3.44;82.62
62402;BME280;48440;51.224;22.506;2024-01-11T13:57:33;99304.84;;;-3.42;82.53
62402;BME280;48440;51.224;22.506;2024-01-11T13:59:59;99288.91;;;-3.42;82.51
62402;BME280;48440;51.224;22.506;2024-01-11T14:02:25;99297.53;;;-3.39;83.16
62402;BME280;48440;51.224;22.506;2024-01-11T14:04:50;99312.47;;;-3.38;83.26
62402;BME280;48440;51.224;22.506;2024-01-11T14:07:16;99313.47;;;-3.39;83.23
62402;BME280;48440;51.224;22.506;2024-01-11T14:09:41;99312.63;;;-3.40;83.34
62402;BME280;48440;51.224;22.506;2024-01-11T14:12:07;99316.44;;;-3.43;83.69
62402;BME280;48440;51.224;22.506;2024-01-11T14:14:33;99309.31;;;-3.42;83.53
62402;BME280;48440;51.224;22.506;2024-01-11T14:16:59;99299.53;;;-3.42;83.59
62402;BME280;48440;51.224;22.506;2024-01-11T14:19:24;99298.38;;;-3.39;83.44
62402;BME280;48440;51.224;22.506;2024-01-11T14:21:50;99301.19;;;-3.40;83.78
62402;BME280;48440;51.224;22.506;2024-01-11T14:24:16;99299.38;;;-3.40;83.88
62402;BME280;48440;51.224;22.506;2024-01-11T14:26:41;99305.34;;;-3.38;83.59
62402;BME280;48440;51.224;22.506;2024-01-11T14:29:08;99308.00;;;-3.38;83.54
62402;BME280;48440;51.224;22.506;2024-01-11T14:31:34;99303.50;;;-3.37;83.66
62402;BME280;48440;51.224;22.506;2024-01-11T14:34:00;99293.91;;;-3.38;83.63
62402;BME280;48440;51.224;22.506;2024-01-11T14:36:25;99289.75;;;-3.41;84.10
62402;BME280;48440;51.224;22.506;2024-01-11T14:38:50;99299.38;;;-3.40;84.09
62402;BME280;48440;51.224;22.506;2024-01-11T14:41:16;99298.53;;;-3.40;84.04
62402;BME280;48440;51.224;22.506;2024-01-11T14:43:41;99290.41;;;-3.39;84.51
62402;BME280;48440;51.224;22.506;2024-01-11T14:46:07;99286.09;;;-3.40;84.52
62402;BME280;48440;51.224;22.506;2024-01-11T14:48:35;99288.75;;;-3.40;84.55
62402;BME280;48440;51.224;22.506;2024-01-11T14:51:01;99279.59;;;-3.37;84.62
62402;BME280;48440;51.224;22.506;2024-01-11T14:53:26;99287.41;;;-3.36;84.91
62402;BME280;48440;51.224;22.506;2024-01-11T14:55:52;99283.09;;;-3.37;84.83
62402;BME280;48440;51.224;22.506;2024-01-11T14:58:17;99287.56;;;-3.37;84.93
62402;BME280;48440;51.224;22.506;2024-01-11T15:00:43;99297.03;;;-3.35;85.06
62402;BME280;48440;51.224;22.506;2024-01-11T15:03:08;99291.56;;;-3.33;85.44
62402;BME280;48440;51.224;22.506;2024-01-11T15:05:34;99287.56;;;-3.29;84.81
62402;BME280;48440;51.224;22.506;2024-01-11T15:08:00;99290.22;;;-3.29;85.31
62402;BME280;48440;51.224;22.506;2024-01-11T15:10:25;99293.72;;;-3.29;85.46
62402;BME280;48440;51.224;22.506;2024-01-11T15:12:51;99314.94;;;-3.29;85.71
62402;BME280;48440;51.224;22.506;2024-01-11T15:15:16;99318.44;;;-3.28;85.71
62402;BME280;48440;51.224;22.506;2024-01-11T15:17:43;99314.44;;;-3.24;85.52
62402;BME280;48440;51.224;22.506;2024-01-11T15:20:09;99317.94;;;-3.24;85.52
62402;BME280;48440;51.224;22.506;2024-01-11T15:22:35;99316.13;;;-3.23;85.74
62402;BME280;48440;51.224;22.506;2024-01-11T15:25:01;99318.75;;;-3.23;85.95
62402;BME280;48440;51.224;22.506;2024-01-11T15:27:26;99314.28;;;-3.23;86.55
62402;BME280;48440;51.224;22.506;2024-01-11T15:29:52;99318.59;;;-3.22;86.31
62402;BME280;48440;51.224;22.506;2024-01-11T15:32:17;99303.34;;;-3.20;86.45
62402;BME280;48440;51.224;22.506;2024-01-11T15:34:43;99305.00;;;-3.19;86.83
62402;BME280;48440;51.224;22.506;2024-01-11T15:37:08;99305.81;;;-3.18;86.89
62402;BME280;48440;51.224;22.506;2024-01-11T15:39:34;99313.63;;;-3.17;87.20
62402;BME280;48440;51.224;22.506;2024-01-11T15:42:01;99309.81;;;-3.14;87.22
62402;BME280;48440;51.224;22.506;2024-01-11T15:44:28;99309.66;;;-3.13;87.37
62402;BME280;48440;51.224;22.506;2024-01-11T15:46:54;99321.72;;;-3.10;87.23
62402;BME280;48440;51.224;22.506;2024-01-11T15:49:20;99314.44;;;-3.08;87.04
62402;BME280;48440;51.224;22.506;2024-01-11T15:51:46;99318.75;;;-3.07;87.15
62402;BME280;48440;51.224;22.506;2024-01-11T15:54:11;99317.91;;;-3.08;87.50
62402;BME280;48440;51.224;22.506;2024-01-11T15:56:37;99330.19;;;-3.07;87.61
62402;BME280;48440;51.224;22.506;2024-01-11T15:59:02;99331.84;;;-3.05;87.50
62402;BME280;48440;51.224;22.506;2024-01-11T16:01:28;99328.22;;;-3.04;87.73
62402;BME280;48440;51.224;22.506;2024-01-11T16:03:54;99335.84;;;-3.01;87.83
62402;BME280;48440;51.224;22.506;2024-01-11T16:06:19;99331.84;;;-2.97;87.61
62402;BME280;48440;51.224;22.506;2024-01-11T16:08:45;99326.56;;;-2.97;87.49
62402;BME280;48440;51.224;22.506;2024-01-11T16:11:13;99331.69;;;-2.96;87.88
62402;BME280;48440;51.224;22.506;2024-01-11T16:13:39;99327.22;;;-2.95;88.31
62402;BME280;48440;51.224;22.506;2024-01-11T16:16:06;99340.50;;;-2.95;88.42
62402;BME280;48440;51.224;22.506;2024-01-11T16:18:34;99336.84;;;-2.94;89.12
62402;BME280;48440;51.224;22.506;2024-01-11T16:21:00;99328.72;;;-2.93;88.58
62402;BME280;48440;51.224;22.506;2024-01-11T16:23:26;99329.53;;;-2.92;89.03
62402;BME280;48440;51.224;22.506;2024-01-11T16:25:52;99326.88;;;-2.92;89.47
62402;BME280;48440;51.224;22.506;2024-01-11T16:28:17;99336.34;;;-2.90;89.48
62402;BME280;48440;51.224;22.506;2024-01-11T16:30:43;99335.34;;;-2.89;90.10
62402;BME280;48440;51.224;22.506;2024-01-11T16:33:10;99340.50;;;-2.87;90.04
62402;BME280;48440;51.224;22.506;2024-01-11T16:35:36;99322.91;;;-2.88;90.47
62402;BME280;48440;51.224;22.506;2024-01-11T16:38:01;99336.66;;;-2.85;90.76
62402;BME280;48440;51.224;22.506;2024-01-11T16:40:28;99330.16;;;-2.82;90.90
62402;BME280;48440;51.224;22.506;2024-01-11T16:42:54;99332.66;;;-2.81;91.01
62402;BME280;48440;51.224;22.506;2024-01-11T16:45:19;99317.22;;;-2.77;90.58
62402;BME280;48440;51.224;22.506;2024-01-11T16:47:44;99312.41;;;-2.74;90.76
62402;BME280;48440;51.224;22.506;2024-01-11T16:50:10;99319.38;;;-2.72;90.83
62402;BME280;48440;51.224;22.506;2024-01-11T16:52:36;99312.06;;;-2.70;91.27
62402;BME280;48440;51.224;22.506;2024-01-11T16:55:02;99306.59;;;-2.69;91.35
62402;BME280;48440;51.224;22.506;2024-01-11T16:57:28;99310.06;;;-2.68;91.43
62402;BME280;48440;51.224;22.506;2024-01-11T16:59:53;99326.66;;;-2.66;91.16
62402;BME280;48440;51.224;22.506;2024-01-11T17:02:22;99321.03;;;-2.63;91.63
62402;BME280;48440;51.224;22.506;2024-01-11T17:04:48;99313.88;;;-2.63;91.57
62402;BME280;48440;51.224;22.506;2024-01-11T17:07:16;99307.19;;;-2.59;91.55
62402;BME280;48440;51.224;22.506;2024-01-11T17:09:42;99305.88;;;-2.55;91.50
62402;BME280;48440;51.224;22.506;2024-01-11T17:12:07;99312.00;;;-2.54;91.33
62402;BME280;48440;51.224;22.506;2024-01-11T17:14:33;99298.72;;;-2.54;91.55
62402;BME280;48440;51.224;22.506;2024-01-11T17:16:58;99295.06;;;-2.53;92.00
62402;BME280;48440;51.224;22.506;2024-01-11T17:19:26;99306.69;;;-2.54;92.15
62402;BME280;48440;51.224;22.506;2024-01-11T17:21:52;99308.19;;;-2.52;92.18
62402;BME280;48440;51.224;22.506;2024-01-11T17:24:17;99302.69;;;-2.50;92.71
62402;BME280;48440;51.224;22.506;2024-01-11T17:26:43;99307.03;;;-2.49;92.22
62402;BME280;48440;51.224;22.506;2024-01-11T17:29:09;99307.34;;;-2.44;92.01
62402;BME280;48440;51.224;22.506;2024-01-11T17:31:35;99310.16;;;-2.46;91.89
62402;BME280;48440;51.224;22.506;2024-01-11T17:34:04;99309.00;;;-2.43;92.25
62402;BME280;48440;51.224;22.506;2024-01-11T17:36:30;99309.81;;;-2.43;91.88
62402;BME280;48440;51.224;22.506;2024-01-11T17:38:55;99314.16;;;-2.42;92.02
62402;BME280;48440;51.224;22.506;2024-01-11T17:41:21;99308.66;;;-2.40;92.12
62402;BME280;48440;51.224;22.506;2024-01-11T17:43:46;99299.03;;;-2.41;92.23
62402;BME280;48440;51.224;22.506;2024-01-11T17:46:13;99312.63;;;-2.36;92.37
62402;BME280;48440;51.224;22.506;2024-01-11T17:48:38;99310.81;;;-2.35;92.19